Kaisen Maru — JD2195 — position and weather

sailwx.info

Track history (hours):
 
Tides and Currents Weather Stations Pressure Air Temp Water Temp Dewpoint Dewpoint Depression Visibility Wind Speed Wind Dir Waves Ship Positions

Kaisen Maru

Last reported at 2018-Jan-24 05:30 UTC. Time now 2018-Jan-24 05:54 UTC.
Position N 34°35' E 135°27'.

Length 62 m; draft 4.2 m.

Type: Cargo ship. MMSI: 431602319.

Date/timePositionNaut miles runAvg speedWind from/ knotsBaromVisibWave heightAir tempDewpointWater temp
2018-Jan-24 05:30N 34°35' E 135°27'0 0.0
2018-Jan-24 05:01N 34°35' E 135°27'0 0.0
2018-Jan-24 04:30N 34°35' E 135°27'0 0.0
2018-Jan-24 03:57N 34°35' E 135°27'0 0.0
2018-Jan-24 03:30N 34°35' E 135°27'0 0.0
2018-Jan-24 03:00N 34°35' E 135°27'0 0.0
2018-Jan-24 02:31N 34°35' E 135°27'0 0.0
2018-Jan-24 02:00N 34°35' E 135°27'0 0.8
2018-Jan-24 01:31N 34°35' E 135°27'4 7.9
2018-Jan-24 01:00N 34°38' E 135°24'2 4.1
2018-Jan-24 00:30N 34°40' E 135°26'0 0.0
2018-Jan-24 00:00N 34°40' E 135°26'0 0.0
2018-Jan-23 23:29N 34°40' E 135°26'0 0.0
2018-Jan-23 22:59N 34°40' E 135°26'0 0.0
2018-Jan-23 22:30N 34°40' E 135°26'2 3.7
2018-Jan-23 22:00N 34°39' E 135°24'1 2.6
2018-Jan-23 21:30N 34°37' E 135°23'0 0.1
2018-Jan-23 21:00N 34°37' E 135°23'0 0.0
2018-Jan-23 20:30N 34°37' E 135°23'0 0.0
2018-Jan-23 20:00N 34°37' E 135°23'0 0.0
2018-Jan-23 19:30N 34°37' E 135°23'0 0.0
2018-Jan-23 19:00N 34°37' E 135°23'0 0.0
2018-Jan-23 18:30N 34°37' E 135°23'0 0.1
2018-Jan-23 18:01N 34°37' E 135°23'0 0.0
2018-Jan-23 17:30N 34°37' E 135°23'0 0.1
2018-Jan-23 17:01N 34°37' E 135°23'0 0.0
2018-Jan-23 16:30N 34°37' E 135°23'0 0.0
2018-Jan-23 16:00N 34°37' E 135°23'0 0.1
2018-Jan-23 15:30N 34°37' E 135°23'0 0.0
2018-Jan-23 15:00N 34°37' E 135°23'0 0.1
2018-Jan-23 14:30N 34°37' E 135°23'0 0.0
2018-Jan-23 14:00N 34°37' E 135°23'0 0.0
2018-Jan-23 13:31N 34°37' E 135°23'0 0.0
2018-Jan-23 13:00N 34°37' E 135°23'0 0.0
2018-Jan-23 12:30N 34°37' E 135°23'0 0.0
2018-Jan-23 12:00N 34°37' E 135°23'0 0.0
2018-Jan-23 11:30N 34°37' E 135°23'0 0.0
2018-Jan-23 11:01N 34°37' E 135°23'0 0.0
2018-Jan-23 10:30N 34°37' E 135°23'0 0.0
2018-Jan-23 10:00N 34°37' E 135°23'0 0.0
2018-Jan-23 09:30N 34°37' E 135°23'0 0.0
2018-Jan-23 09:00N 34°37' E 135°23'0 0.0
2018-Jan-23 08:30N 34°37' E 135°23'0 0.0
2018-Jan-23 08:00N 34°37' E 135°23'3 6.3
2018-Jan-23 07:31N 34°36' E 135°20'510.4
2018-Jan-23 07:00N 34°35' E 135°13'510.5
2018-Jan-23 06:30N 34°35' E 135°07'510.5
2018-Jan-23 06:00N 34°37' E 135°01'5 9.6
2018-Jan-23 05:31N 34°37' E 134°55'5 9.5
2018-Jan-23 05:00N 34°38' E 134°50'5 9.9
2018-Jan-23 04:30N 34°37' E 134°44'5 9.9
2018-Jan-23 04:00N 34°37' E 134°38'5 9.7
2018-Jan-23 03:29N 34°35' E 134°32'92 9.2
2018-Jan-22 17:30N 34°08' E 132°46'510.6
2018-Jan-22 17:01N 34°05' E 132°41'510.7
2018-Jan-22 16:30N 34°03' E 132°35'5 8.6
2018-Jan-22 15:55N 34°04' E 132°29'4 7.8
2018-Jan-22 15:26N 34°07' E 132°27'4 8.7
2018-Jan-22 15:01N 34°11' E 132°29'4 7.7
2018-Jan-22 14:31N 34°14' E 132°32'0 0.5
2018-Jan-22 14:01N 34°14' E 132°32'0 0.0
2018-Jan-22 13:30N 34°14' E 132°32'0 0.1
2018-Jan-22 13:00N 34°14' E 132°32'0 0.1
2018-Jan-22 12:30N 34°14' E 132°32'0 0.0
2018-Jan-22 12:00N 34°14' E 132°32'0 0.1
2018-Jan-22 11:31N 34°14' E 132°32'0 0.1
2018-Jan-22 11:00N 34°14' E 132°32'0 0.1
2018-Jan-22 10:30N 34°14' E 132°32'0 0.1
2018-Jan-22 10:00N 34°14' E 132°32'0 0.0
2018-Jan-22 09:31N 34°14' E 132°32'0 0.0
2018-Jan-22 08:59N 34°14' E 132°32'0 0.0
2018-Jan-22 08:31N 34°14' E 132°32'0 0.0
2018-Jan-22 08:00N 34°14' E 132°32'3 5.9
2018-Jan-22 07:30N 34°16' E 132°30'4 8.0
2018-Jan-22 07:00N 34°20' E 132°30'0 0.0
2018-Jan-22 06:30N 34°20' E 132°30'0 0.0
2018-Jan-22 06:00N 34°20' E 132°30'0 0.0
2018-Jan-22 05:30N 34°20' E 132°30'0 0.0
2018-Jan-22 05:00N 34°20' E 132°30'0 0.0
2018-Jan-22 04:30N 34°20' E 132°30'0 0.0
2018-Jan-22 04:01N 34°20' E 132°30'0 0.0
2018-Jan-22 03:30N 34°20' E 132°30'0 0.0
2018-Jan-22 03:00N 34°20' E 132°30'0 0.0
2018-Jan-22 02:31N 34°20' E 132°30'0 0.0
2018-Jan-22 02:00N 34°20' E 132°30'0 0.0
2018-Jan-22 01:30N 34°20' E 132°30'0 0.0
2018-Jan-22 01:00N 34°20' E 132°30'0 0.0
2018-Jan-22 00:29N 34°20' E 132°30'0 0.0
2018-Jan-22 00:01N 34°20' E 132°30'0 0.0
2018-Jan-21 23:30N 34°20' E 132°30'0 0.0
2018-Jan-21 23:01N 34°20' E 132°30'0 0.0
2018-Jan-21 22:30N 34°20' E 132°30'0 0.0
2018-Jan-21 22:00N 34°20' E 132°30'3 5.2
2018-Jan-21 21:30N 34°17' E 132°30'5 9.8
2018-Jan-21 21:00N 34°12' E 132°30'5 9.2
2018-Jan-21 20:30N 34°08' E 132°29'4 6.5
2018-Jan-21 19:52N 34°04' E 132°28'5 8.7
2018-Jan-21 19:18N 34°03' E 132°34'311.0
2018-Jan-21 19:00N 34°05' E 132°38'73 9.8
2018-Jan-21 11:36N 34°27' E 134°02'310.8
2018-Jan-21 11:17N 34°30' E 134°02'2310.0
2018-Jan-21 08:56N 34°40' E 134°28'4 9.6
2018-Jan-21 08:29N 34°42' E 134°33'4 9.3
2018-Jan-21 08:00N 34°45' E 134°37'3 4.0
2018-Jan-21 07:23N 34°47' E 134°38'0 0.0
2018-Jan-21 07:00N 34°47' E 134°38'0 0.0
2018-Jan-21 06:30N 34°47' E 134°38'0 0.0
2018-Jan-21 05:50N 34°47' E 134°38'0 0.0
2018-Jan-21 05:20N 34°47' E 134°38'0 0.0
2018-Jan-21 05:00N 34°47' E 134°38'0 0.0
2018-Jan-21 04:13N 34°47' E 134°38'0 0.0
2018-Jan-21 03:58N 34°47' E 134°38'0 0.0
2018-Jan-21 03:30N 34°47' E 134°38'0 0.0
2018-Jan-21 03:00N 34°47' E 134°38'0 0.0
2018-Jan-21 01:30N 34°47' E 134°38'0 0.0
2018-Jan-21 00:57N 34°47' E 134°38'0 0.0
2018-Jan-21 00:30N 34°47' E 134°38'0 0.0
2018-Jan-20 23:43N 34°47' E 134°38'0 0.0
2018-Jan-20 23:30N 34°47' E 134°38'0 0.0
2018-Jan-20 22:48N 34°47' E 134°38'0 0.0
2018-Jan-20 22:26N 34°47' E 134°38'0 0.6
2018-Jan-20 21:57N 34°47' E 134°38'1 0.1
2018-Jan-20 05:16N 34°46' E 134°39'3 8.7
2018-Jan-20 04:58N 34°44' E 134°41'511.3
2018-Jan-20 04:30N 34°41' E 134°46'510.2
2018-Jan-20 04:00N 34°39' E 134°51'611.4
2018-Jan-20 03:30N 34°38' E 134°58'612.3
2018-Jan-20 03:00N 34°36' E 135°05'611.7
2018-Jan-20 02:30N 34°35' E 135°12'611.8
2018-Jan-20 02:01N 34°33' E 135°19'4 8.8
2018-Jan-20 01:30N 34°31' E 135°24'0 0.0
2018-Jan-20 01:00N 34°31' E 135°24'0 0.0
2018-Jan-20 00:30N 34°31' E 135°24'0 0.0
2018-Jan-20 00:00N 34°31' E 135°24'0 0.0
2018-Jan-19 23:30N 34°31' E 135°24'0 0.0
2018-Jan-19 23:01N 34°31' E 135°24'0 0.0
2018-Jan-19 22:30N 34°31' E 135°24'0 0.0
2018-Jan-19 22:00N 34°31' E 135°24'0 0.0
2018-Jan-19 21:31N 34°31' E 135°24'0 0.0
2018-Jan-19 21:00N 34°31' E 135°24'0 0.0
2018-Jan-19 20:30N 34°31' E 135°24'0 0.0
2018-Jan-19 20:00N 34°31' E 135°24'0 0.0
2018-Jan-19 19:30N 34°31' E 135°24'0 0.0
2018-Jan-19 19:00N 34°31' E 135°24'0 0.0
2018-Jan-19 18:30N 34°31' E 135°24'0 0.0
2018-Jan-19 18:00N 34°31' E 135°24'0 0.0
2018-Jan-19 17:30N 34°31' E 135°24'0 0.0
2018-Jan-19 17:00N 34°31' E 135°24'0 0.0
2018-Jan-19 16:30N 34°31' E 135°24'0 0.0
2018-Jan-19 16:00N 34°31' E 135°24'0 0.0
2018-Jan-19 15:30N 34°31' E 135°24'0 0.0
2018-Jan-19 15:00N 34°31' E 135°24'0 0.0
2018-Jan-19 14:29N 34°31' E 135°24'0 0.0
2018-Jan-19 14:00N 34°31' E 135°24'0 0.0
2018-Jan-19 13:30N 34°31' E 135°24'0 0.0
2018-Jan-19 13:00N 34°31' E 135°24'0 0.0
2018-Jan-19 12:30N 34°31' E 135°24'0 0.0
2018-Jan-19 12:00N 34°31' E 135°24'0 0.0
2018-Jan-19 11:30N 34°31' E 135°24'0 0.0
2018-Jan-19 11:00N 34°31' E 135°24'0 0.0
2018-Jan-19 10:30N 34°31' E 135°24'0 0.0
2018-Jan-19 10:00N 34°31' E 135°24'0 0.0
2018-Jan-19 09:31N 34°31' E 135°24'0 0.0
2018-Jan-19 08:59N 34°31' E 135°24'2 4.2
2018-Jan-19 08:30N 34°32' E 135°22'510.0
2018-Jan-19 08:00N 34°33' E 135°16'510.1
2018-Jan-19 07:30N 34°34' E 135°10'510.7
2018-Jan-19 07:00N 34°35' E 135°04'611.6
2018-Jan-19 06:30N 34°36' E 134°57'612.0
2018-Jan-19 06:00N 34°39' E 134°50'611.2
2018-Jan-19 05:30N 34°42' E 134°44'710.3
2018-Jan-19 04:50N 34°46' E 134°38'1 0.3
2018-Jan-18 23:00N 34°47' E 134°38'1 2.0
2018-Jan-18 22:23N 34°46' E 134°38'1 2.4
2018-Jan-18 22:00N 34°45' E 134°38'0 0.0
2018-Jan-18 21:30N 34°45' E 134°38'0 0.1
2018-Jan-18 20:46N 34°45' E 134°38'0 0.0
2018-Jan-18 19:46N 34°45' E 134°38'0 0.0
2018-Jan-18 19:30N 34°45' E 134°38'0 0.0
2018-Jan-18 18:57N 34°45' E 134°38'0 0.0
2018-Jan-18 18:30N 34°45' E 134°38'0 0.0
2018-Jan-18 17:27N 34°45' E 134°38'0 0.0
2018-Jan-18 16:44N 34°45' E 134°38'0 0.0
2018-Jan-18 15:39N 34°45' E 134°38'0 0.0
2018-Jan-18 15:29N 34°45' E 134°38'0 0.0
2018-Jan-18 14:42N 34°45' E 134°38'0 0.0
2018-Jan-18 14:30N 34°45' E 134°38'0 0.0
2018-Jan-18 13:57N 34°45' E 134°38'0 0.0
2018-Jan-18 13:30N 34°45' E 134°38'3 6.1
2018-Jan-18 13:00N 34°43' E 134°41'611.9
2018-Jan-18 12:30N 34°40' E 134°47'612.8
2018-Jan-18 12:01N 34°37' E 134°54'612.8
2018-Jan-18 11:30N 34°37' E 135°02'612.2
2018-Jan-18 11:00N 34°36' E 135°09'611.7
2018-Jan-18 10:31N 34°36' E 135°16'611.4
2018-Jan-18 10:00N 34°36' E 135°23'4 7.2
2018-Jan-18 09:30N 34°34' E 135°27'0 0.0
2018-Jan-18 09:01N 34°34' E 135°27'0 0.0
2018-Jan-18 08:30N 34°34' E 135°27'0 0.0
2018-Jan-18 08:00N 34°34' E 135°27'0 0.0
2018-Jan-18 07:30N 34°34' E 135°27'0 0.0
2018-Jan-18 07:00N 34°34' E 135°27'0 0.0
2018-Jan-18 06:30N 34°34' E 135°27'0 0.0
2018-Jan-18 06:00N 34°34' E 135°27'0 0.0
2018-Jan-18 05:31N 34°34' E 135°27'0 0.0
2018-Jan-18 05:00N 34°34' E 135°27'0 0.0
2018-Jan-18 04:31N 34°34' E 135°27'0 0.0
2018-Jan-18 04:00N 34°34' E 135°27'0 0.0
2018-Jan-18 03:30N 34°34' E 135°27'0 0.0
2018-Jan-18 03:00N 34°34' E 135°27'0 0.0
2018-Jan-18 02:30N 34°34' E 135°27'0 0.0
2018-Jan-18 02:00N 34°34' E 135°27'0 0.0
2018-Jan-18 01:30N 34°34' E 135°27'0 0.1
2018-Jan-18 01:00N 34°34' E 135°27'0 0.0
2018-Jan-18 00:00N 34°34' E 135°27'0 0.0
2018-Jan-17 23:58N 34°34' E 135°27'  
Track history (hours):
 
Tides and Currents Weather Stations Pressure Air Temp Water Temp Dewpoint Dewpoint Depression Visibility Wind Speed Wind Dir Waves Ship Positions

Kaisen Maru

Last reported at 2018-Jan-24 05:30 UTC. Time now 2018-Jan-24 05:54 UTC.
Position N 34°35' E 135°27'.

Length 62 m; draft 4.2 m.

Type: Cargo ship. MMSI: 431602319.

Date/timePositionNaut miles runAvg speedWind from/ knotsBaromVisibWave heightAir tempDewpointWater temp
2018-Jan-24 05:30N 34°35' E 135°27'0 0.0
2018-Jan-24 05:01N 34°35' E 135°27'0 0.0
2018-Jan-24 04:30N 34°35' E 135°27'0 0.0
2018-Jan-24 03:57N 34°35' E 135°27'0 0.0
2018-Jan-24 03:30N 34°35' E 135°27'0 0.0
2018-Jan-24 03:00N 34°35' E 135°27'0 0.0
2018-Jan-24 02:31N 34°35' E 135°27'0 0.0
2018-Jan-24 02:00N 34°35' E 135°27'0 0.8
2018-Jan-24 01:31N 34°35' E 135°27'4 7.9
2018-Jan-24 01:00N 34°38' E 135°24'2 4.1
2018-Jan-24 00:30N 34°40' E 135°26'0 0.0
2018-Jan-24 00:00N 34°40' E 135°26'0 0.0
2018-Jan-23 23:29N 34°40' E 135°26'0 0.0
2018-Jan-23 22:59N 34°40' E 135°26'0 0.0
2018-Jan-23 22:30N 34°40' E 135°26'2 3.7
2018-Jan-23 22:00N 34°39' E 135°24'1 2.6
2018-Jan-23 21:30N 34°37' E 135°23'0 0.1
2018-Jan-23 21:00N 34°37' E 135°23'0 0.0
2018-Jan-23 20:30N 34°37' E 135°23'0 0.0
2018-Jan-23 20:00N 34°37' E 135°23'0 0.0
2018-Jan-23 19:30N 34°37' E 135°23'0 0.0
2018-Jan-23 19:00N 34°37' E 135°23'0 0.0
2018-Jan-23 18:30N 34°37' E 135°23'0 0.1
2018-Jan-23 18:01N 34°37' E 135°23'0 0.0
2018-Jan-23 17:30N 34°37' E 135°23'0 0.1
2018-Jan-23 17:01N 34°37' E 135°23'0 0.0
2018-Jan-23 16:30N 34°37' E 135°23'0 0.0
2018-Jan-23 16:00N 34°37' E 135°23'0 0.1
2018-Jan-23 15:30N 34°37' E 135°23'0 0.0
2018-Jan-23 15:00N 34°37' E 135°23'0 0.1
2018-Jan-23 14:30N 34°37' E 135°23'0 0.0
2018-Jan-23 14:00N 34°37' E 135°23'0 0.0
2018-Jan-23 13:31N 34°37' E 135°23'0 0.0
2018-Jan-23 13:00N 34°37' E 135°23'0 0.0
2018-Jan-23 12:30N 34°37' E 135°23'0 0.0
2018-Jan-23 12:00N 34°37' E 135°23'0 0.0
2018-Jan-23 11:30N 34°37' E 135°23'0 0.0
2018-Jan-23 11:01N 34°37' E 135°23'0 0.0
2018-Jan-23 10:30N 34°37' E 135°23'0 0.0
2018-Jan-23 10:00N 34°37' E 135°23'0 0.0
2018-Jan-23 09:30N 34°37' E 135°23'0 0.0
2018-Jan-23 09:00N 34°37' E 135°23'0 0.0
2018-Jan-23 08:30N 34°37' E 135°23'0 0.0
2018-Jan-23 08:00N 34°37' E 135°23'3 6.3
2018-Jan-23 07:31N 34°36' E 135°20'510.4
2018-Jan-23 07:00N 34°35' E 135°13'510.5
2018-Jan-23 06:30N 34°35' E 135°07'510.5
2018-Jan-23 06:00N 34°37' E 135°01'5 9.6
2018-Jan-23 05:31N 34°37' E 134°55'5 9.5
2018-Jan-23 05:00N 34°38' E 134°50'5 9.9
2018-Jan-23 04:30N 34°37' E 134°44'5 9.9
2018-Jan-23 04:00N 34°37' E 134°38'5 9.7
2018-Jan-23 03:29N 34°35' E 134°32'92 9.2
2018-Jan-22 17:30N 34°08' E 132°46'510.6
2018-Jan-22 17:01N 34°05' E 132°41'510.7
2018-Jan-22 16:30N 34°03' E 132°35'5 8.6
2018-Jan-22 15:55N 34°04' E 132°29'4 7.8
2018-Jan-22 15:26N 34°07' E 132°27'4 8.7
2018-Jan-22 15:01N 34°11' E 132°29'4 7.7
2018-Jan-22 14:31N 34°14' E 132°32'0 0.5
2018-Jan-22 14:01N 34°14' E 132°32'0 0.0
2018-Jan-22 13:30N 34°14' E 132°32'0 0.1
2018-Jan-22 13:00N 34°14' E 132°32'0 0.1
2018-Jan-22 12:30N 34°14' E 132°32'0 0.0
2018-Jan-22 12:00N 34°14' E 132°32'0 0.1
2018-Jan-22 11:31N 34°14' E 132°32'0 0.1
2018-Jan-22 11:00N 34°14' E 132°32'0 0.1
2018-Jan-22 10:30N 34°14' E 132°32'0 0.1
2018-Jan-22 10:00N 34°14' E 132°32'0 0.0
2018-Jan-22 09:31N 34°14' E 132°32'0 0.0
2018-Jan-22 08:59N 34°14' E 132°32'0 0.0
2018-Jan-22 08:31N 34°14' E 132°32'0 0.0
2018-Jan-22 08:00N 34°14' E 132°32'3 5.9
2018-Jan-22 07:30N 34°16' E 132°30'4 8.0
2018-Jan-22 07:00N 34°20' E 132°30'0 0.0
2018-Jan-22 06:30N 34°20' E 132°30'0 0.0
2018-Jan-22 06:00N 34°20' E 132°30'0 0.0
2018-Jan-22 05:30N 34°20' E 132°30'0 0.0
2018-Jan-22 05:00N 34°20' E 132°30'0 0.0
2018-Jan-22 04:30N 34°20' E 132°30'0 0.0
2018-Jan-22 04:01N 34°20' E 132°30'0 0.0
2018-Jan-22 03:30N 34°20' E 132°30'0 0.0
2018-Jan-22 03:00N 34°20' E 132°30'0 0.0
2018-Jan-22 02:31N 34°20' E 132°30'0 0.0
2018-Jan-22 02:00N 34°20' E 132°30'0 0.0
2018-Jan-22 01:30N 34°20' E 132°30'0 0.0
2018-Jan-22 01:00N 34°20' E 132°30'0 0.0
2018-Jan-22 00:29N 34°20' E 132°30'0 0.0
2018-Jan-22 00:01N 34°20' E 132°30'0 0.0
2018-Jan-21 23:30N 34°20' E 132°30'0 0.0
2018-Jan-21 23:01N 34°20' E 132°30'0 0.0
2018-Jan-21 22:30N 34°20' E 132°30'0 0.0
2018-Jan-21 22:00N 34°20' E 132°30'3 5.2
2018-Jan-21 21:30N 34°17' E 132°30'5 9.8
2018-Jan-21 21:00N 34°12' E 132°30'5 9.2
2018-Jan-21 20:30N 34°08' E 132°29'4 6.5
2018-Jan-21 19:52N 34°04' E 132°28'5 8.7
2018-Jan-21 19:18N 34°03' E 132°34'311.0
2018-Jan-21 19:00N 34°05' E 132°38'73 9.8
2018-Jan-21 11:36N 34°27' E 134°02'310.8
2018-Jan-21 11:17N 34°30' E 134°02'2310.0
2018-Jan-21 08:56N 34°40' E 134°28'4 9.6
2018-Jan-21 08:29N 34°42' E 134°33'4 9.3
2018-Jan-21 08:00N 34°45' E 134°37'3 4.0
2018-Jan-21 07:23N 34°47' E 134°38'0 0.0
2018-Jan-21 07:00N 34°47' E 134°38'0 0.0
2018-Jan-21 06:30N 34°47' E 134°38'0 0.0
2018-Jan-21 05:50N 34°47' E 134°38'0 0.0
2018-Jan-21 05:20N 34°47' E 134°38'0 0.0
2018-Jan-21 05:00N 34°47' E 134°38'0 0.0
2018-Jan-21 04:13N 34°47' E 134°38'0 0.0
2018-Jan-21 03:58N 34°47' E 134°38'0 0.0
2018-Jan-21 03:30N 34°47' E 134°38'0 0.0
2018-Jan-21 03:00N 34°47' E 134°38'0 0.0
2018-Jan-21 01:30N 34°47' E 134°38'0 0.0
2018-Jan-21 00:57N 34°47' E 134°38'0 0.0
2018-Jan-21 00:30N 34°47' E 134°38'0 0.0
2018-Jan-20 23:43N 34°47' E 134°38'0 0.0
2018-Jan-20 23:30N 34°47' E 134°38'0 0.0
2018-Jan-20 22:48N 34°47' E 134°38'0 0.0
2018-Jan-20 22:26N 34°47' E 134°38'0 0.6
2018-Jan-20 21:57N 34°47' E 134°38'1 0.1
2018-Jan-20 05:16N 34°46' E 134°39'3 8.7
2018-Jan-20 04:58N 34°44' E 134°41'511.3
2018-Jan-20 04:30N 34°41' E 134°46'510.2
2018-Jan-20 04:00N 34°39' E 134°51'611.4
2018-Jan-20 03:30N 34°38' E 134°58'612.3
2018-Jan-20 03:00N 34°36' E 135°05'611.7
2018-Jan-20 02:30N 34°35' E 135°12'611.8
2018-Jan-20 02:01N 34°33' E 135°19'4 8.8
2018-Jan-20 01:30N 34°31' E 135°24'0 0.0
2018-Jan-20 01:00N 34°31' E 135°24'0 0.0
2018-Jan-20 00:30N 34°31' E 135°24'0 0.0
2018-Jan-20 00:00N 34°31' E 135°24'0 0.0
2018-Jan-19 23:30N 34°31' E 135°24'0 0.0
2018-Jan-19 23:01N 34°31' E 135°24'0 0.0
2018-Jan-19 22:30N 34°31' E 135°24'0 0.0
2018-Jan-19 22:00N 34°31' E 135°24'0 0.0
2018-Jan-19 21:31N 34°31' E 135°24'0 0.0
2018-Jan-19 21:00N 34°31' E 135°24'0 0.0
2018-Jan-19 20:30N 34°31' E 135°24'0 0.0
2018-Jan-19 20:00N 34°31' E 135°24'0 0.0
2018-Jan-19 19:30N 34°31' E 135°24'0 0.0
2018-Jan-19 19:00N 34°31' E 135°24'0 0.0
2018-Jan-19 18:30N 34°31' E 135°24'0 0.0
2018-Jan-19 18:00N 34°31' E 135°24'0 0.0
2018-Jan-19 17:30N 34°31' E 135°24'0 0.0
2018-Jan-19 17:00N 34°31' E 135°24'0 0.0
2018-Jan-19 16:30N 34°31' E 135°24'0 0.0
2018-Jan-19 16:00N 34°31' E 135°24'0 0.0
2018-Jan-19 15:30N 34°31' E 135°24'0 0.0
2018-Jan-19 15:00N 34°31' E 135°24'0 0.0
2018-Jan-19 14:29N 34°31' E 135°24'0 0.0
2018-Jan-19 14:00N 34°31' E 135°24'0 0.0
2018-Jan-19 13:30N 34°31' E 135°24'0 0.0
2018-Jan-19 13:00N 34°31' E 135°24'0 0.0
2018-Jan-19 12:30N 34°31' E 135°24'0 0.0
2018-Jan-19 12:00N 34°31' E 135°24'0 0.0
2018-Jan-19 11:30N 34°31' E 135°24'0 0.0
2018-Jan-19 11:00N 34°31' E 135°24'0 0.0
2018-Jan-19 10:30N 34°31' E 135°24'0 0.0
2018-Jan-19 10:00N 34°31' E 135°24'0 0.0
2018-Jan-19 09:31N 34°31' E 135°24'0 0.0
2018-Jan-19 08:59N 34°31' E 135°24'2 4.2
2018-Jan-19 08:30N 34°32' E 135°22'510.0
2018-Jan-19 08:00N 34°33' E 135°16'510.1
2018-Jan-19 07:30N 34°34' E 135°10'510.7
2018-Jan-19 07:00N 34°35' E 135°04'611.6
2018-Jan-19 06:30N 34°36' E 134°57'612.0
2018-Jan-19 06:00N 34°39' E 134°50'611.2
2018-Jan-19 05:30N 34°42' E 134°44'710.3
2018-Jan-19 04:50N 34°46' E 134°38'1 0.3
2018-Jan-18 23:00N 34°47' E 134°38'1 2.0
2018-Jan-18 22:23N 34°46' E 134°38'1 2.4
2018-Jan-18 22:00N 34°45' E 134°38'0 0.0
2018-Jan-18 21:30N 34°45' E 134°38'0 0.1
2018-Jan-18 20:46N 34°45' E 134°38'0 0.0
2018-Jan-18 19:46N 34°45' E 134°38'0 0.0
2018-Jan-18 19:30N 34°45' E 134°38'0 0.0
2018-Jan-18 18:57N 34°45' E 134°38'0 0.0
2018-Jan-18 18:30N 34°45' E 134°38'0 0.0
2018-Jan-18 17:27N 34°45' E 134°38'0 0.0
2018-Jan-18 16:44N 34°45' E 134°38'0 0.0
2018-Jan-18 15:39N 34°45' E 134°38'0 0.0
2018-Jan-18 15:29N 34°45' E 134°38'0 0.0
2018-Jan-18 14:42N 34°45' E 134°38'0 0.0
2018-Jan-18 14:30N 34°45' E 134°38'0 0.0
2018-Jan-18 13:57N 34°45' E 134°38'0 0.0
2018-Jan-18 13:30N 34°45' E 134°38'3 6.1
2018-Jan-18 13:00N 34°43' E 134°41'611.9
2018-Jan-18 12:30N 34°40' E 134°47'612.8
2018-Jan-18 12:01N 34°37' E 134°54'612.8
2018-Jan-18 11:30N 34°37' E 135°02'612.2
2018-Jan-18 11:00N 34°36' E 135°09'611.7
2018-Jan-18 10:31N 34°36' E 135°16'611.4
2018-Jan-18 10:00N 34°36' E 135°23'4 7.2
2018-Jan-18 09:30N 34°34' E 135°27'0 0.0
2018-Jan-18 09:01N 34°34' E 135°27'0 0.0
2018-Jan-18 08:30N 34°34' E 135°27'0 0.0
2018-Jan-18 08:00N 34°34' E 135°27'0 0.0
2018-Jan-18 07:30N 34°34' E 135°27'0 0.0
2018-Jan-18 07:00N 34°34' E 135°27'0 0.0
2018-Jan-18 06:30N 34°34' E 135°27'0 0.0
2018-Jan-18 06:00N 34°34' E 135°27'0 0.0
2018-Jan-18 05:31N 34°34' E 135°27'0 0.0
2018-Jan-18 05:00N 34°34' E 135°27'0 0.0
2018-Jan-18 04:31N 34°34' E 135°27'0 0.0
2018-Jan-18 04:00N 34°34' E 135°27'0 0.0
2018-Jan-18 03:30N 34°34' E 135°27'0 0.0
2018-Jan-18 03:00N 34°34' E 135°27'0 0.0
2018-Jan-18 02:30N 34°34' E 135°27'0 0.0
2018-Jan-18 02:00N 34°34' E 135°27'0 0.0
2018-Jan-18 01:30N 34°34' E 135°27'0 0.1
2018-Jan-18 01:00N 34°34' E 135°27'0 0.0
2018-Jan-18 00:00N 34°34' E 135°27'0 0.0
2018-Jan-17 23:58N 34°34' E 135°27'  

Dump ship's entire track history